createdAt,value
2017-09-09T00:00:27.337Z,80.40
2017-09-09T00:02:54.775Z,80.60
2017-09-09T00:05:22.253Z,80.80
2017-09-09T00:07:49.776Z,80.80
2017-09-09T00:10:17.224Z,80.60
2017-09-09T00:12:45.493Z,80.80
2017-09-09T00:15:13.691Z,80.80
2017-09-09T00:17:41.169Z,80.80
2017-09-09T00:20:08.610Z,80.90
2017-09-09T00:22:36.044Z,81.00
2017-09-09T00:25:04.275Z,81.00
2017-09-09T00:27:31.854Z,81.00
2017-09-09T00:29:59.308Z,81.20
2017-09-09T00:32:26.739Z,81.00
2017-09-09T00:34:54.207Z,81.10
2017-09-09T00:37:21.644Z,81.20
2017-09-09T00:39:49.093Z,81.40
2017-09-09T00:42:16.558Z,81.50
2017-09-09T00:44:43.994Z,81.50
2017-09-09T00:47:11.448Z,81.50
2017-09-09T00:49:38.880Z,81.70
2017-09-09T00:52:07.108Z,81.80
2017-09-09T00:54:34.548Z,81.80
2017-09-09T00:57:02.091Z,81.90
2017-09-09T00:59:29.533Z,82.10
2017-09-09T01:01:56.977Z,82.10
2017-09-09T01:04:25.202Z,82.20
2017-09-09T01:06:52.671Z,82.20
2017-09-09T01:09:20.128Z,82.30
2017-09-09T01:11:47.581Z,82.50
2017-09-09T01:14:15.032Z,82.60
2017-09-09T01:16:42.480Z,82.60
2017-09-09T01:19:09.942Z,82.80
2017-09-09T01:21:37.381Z,82.80
2017-09-09T01:24:04.836Z,82.90
2017-09-09T01:26:32.295Z,83.20
2017-09-09T01:28:59.731Z,83.10
2017-09-09T01:31:27.187Z,83.30
2017-09-09T01:33:54.632Z,83.40
2017-09-09T01:36:22.085Z,83.30
2017-09-09T01:38:50.283Z,83.30
2017-09-09T01:41:17.792Z,83.30
2017-09-09T01:43:45.253Z,83.40
2017-09-09T01:46:12.682Z,83.30
2017-09-09T01:48:40.133Z,83.40
2017-09-09T01:51:07.576Z,83.40
2017-09-09T01:53:35.031Z,83.40
2017-09-09T01:56:02.472Z,83.40
2017-09-09T01:58:29.931Z,83.30
2017-09-09T02:00:57.372Z,83.40
2017-09-09T02:03:24.808Z,83.50
2017-09-09T02:05:53.052Z,83.40
2017-09-09T02:08:20.504Z,83.30
2017-09-09T02:10:47.966Z,83.50
2017-09-09T02:13:15.407Z,83.50
2017-09-09T02:15:42.867Z,83.60
2017-09-09T02:18:10.309Z,83.30
2017-09-09T02:20:37.756Z,83.40
2017-09-09T02:23:05.192Z,83.40
2017-09-09T02:25:32.646Z,83.40
2017-09-09T02:28:00.076Z,83.60
2017-09-09T02:30:27.513Z,83.50
2017-09-09T02:32:54.980Z,83.80
2017-09-09T02:35:22.417Z,83.60
2017-09-09T02:37:49.892Z,83.80
2017-09-09T02:40:17.333Z,83.60
2017-09-09T02:42:44.792Z,83.70
2017-09-09T02:45:12.247Z,84.00
2017-09-09T02:47:39.682Z,83.80
2017-09-09T02:50:07.140Z,83.90
2017-09-09T02:52:34.573Z,83.90
2017-09-09T02:55:02.025Z,84.00
2017-09-09T02:57:29.455Z,83.90
2017-09-09T02:59:56.916Z,84.10
2017-09-09T03:02:25.128Z,84.00
2017-09-09T03:04:52.592Z,84.00
2017-09-09T03:07:20.068Z,84.00
2017-09-09T03:09:47.508Z,84.30
2017-09-09T03:12:14.973Z,84.40
2017-09-09T03:14:42.412Z,84.50
2017-09-09T03:17:09.853Z,84.40
2017-09-09T03:19:37.371Z,84.60
2017-09-09T03:22:04.832Z,84.80
2017-09-09T03:24:32.271Z,85.00
2017-09-09T03:26:59.730Z,85.30
2017-09-09T03:29:27.185Z,85.70
2017-09-09T03:31:54.629Z,86.50
2017-09-09T03:34:22.087Z,86.80
2017-09-09T03:36:50.396Z,88.20
2017-09-09T03:39:17.836Z,89.20
2017-09-09T03:41:45.286Z,89.90
2017-09-09T03:44:12.735Z,90.30
2017-09-09T03:46:40.266Z,90.50
2017-09-09T03:49:07.725Z,90.70
2017-09-09T03:51:35.161Z,90.90
2017-09-09T03:54:02.620Z,90.90
2017-09-09T03:56:30.076Z,91.00
2017-09-09T03:58:57.635Z,90.90
2017-09-09T04:01:25.085Z,91.00
2017-09-09T04:03:52.548Z,91.20
2017-09-09T04:06:19.991Z,91.20
2017-09-09T04:08:47.461Z,91.20
2017-09-09T04:11:14.912Z,91.40
2017-09-09T04:13:42.345Z,91.70
2017-09-09T04:16:10.560Z,92.40
2017-09-09T04:18:38.002Z,92.30
2017-09-09T04:21:05.469Z,93.10
2017-09-09T04:23:33.736Z,93.60
2017-09-09T04:26:01.171Z,94.10
2017-09-09T04:28:30.020Z,95.40
2017-09-09T04:30:57.463Z,95.40
2017-09-09T04:33:24.923Z,96.20
2017-09-09T04:35:52.361Z,97.40
2017-09-09T04:38:19.832Z,97.90
2017-09-09T04:40:47.283Z,97.90
2017-09-09T04:43:15.488Z,99.50
2017-09-09T04:45:43.716Z,99.90
2017-09-09T04:48:11.158Z,99.90
2017-09-09T04:50:38.612Z,99.90
2017-09-09T04:53:06.049Z,99.90
2017-09-09T04:55:34.272Z,99.90
2017-09-09T04:58:01.705Z,99.90
2017-09-09T05:00:29.157Z,99.90
2017-09-09T05:02:56.597Z,99.90
2017-09-09T05:05:24.052Z,99.90
2017-09-09T05:07:52.255Z,99.90
2017-09-09T05:10:19.696Z,99.90
2017-09-09T05:12:47.168Z,99.90
2017-09-09T05:15:14.607Z,99.90
2017-09-09T05:17:42.077Z,99.90
2017-09-09T05:20:09.529Z,99.90
2017-09-09T05:22:36.984Z,99.90
2017-09-09T05:25:04.484Z,99.90
2017-09-09T05:27:32.022Z,99.90
2017-09-09T05:29:59.484Z,99.90
2017-09-09T05:32:26.951Z,99.90
2017-09-09T05:34:54.408Z,99.90
2017-09-09T05:37:21.876Z,99.90
2017-09-09T05:39:49.351Z,99.90
2017-09-09T05:42:17.605Z,99.90
2017-09-09T05:44:45.048Z,99.90
2017-09-09T05:47:13.281Z,99.90
2017-09-09T05:49:40.761Z,99.90
2017-09-09T05:52:08.197Z,99.90
2017-09-09T05:54:35.660Z,99.90
2017-09-09T05:57:03.104Z,99.90
2017-09-09T05:59:30.568Z,99.90
2017-09-09T06:01:58.036Z,99.90
2017-09-09T06:04:25.480Z,99.90
2017-09-09T06:06:52.951Z,99.90
2017-09-09T06:09:20.396Z,99.90
2017-09-09T06:11:47.851Z,99.90
2017-09-09T06:14:15.313Z,99.90
2017-09-09T06:16:42.782Z,99.90
2017-09-09T06:19:10.216Z,99.90
2017-09-09T06:21:37.681Z,99.90
2017-09-09T06:24:05.164Z,99.90
2017-09-09T06:26:32.625Z,99.90
2017-09-09T06:29:00.053Z,99.90
2017-09-09T06:31:27.516Z,99.90
2017-09-09T06:33:54.972Z,99.90
2017-09-09T06:36:22.416Z,99.90
2017-09-09T06:38:49.882Z,99.90
2017-09-09T06:41:17.320Z,99.90
2017-09-09T06:43:44.756Z,99.90
2017-09-09T06:46:12.211Z,99.90
2017-09-09T06:48:40.425Z,99.90
2017-09-09T06:51:07.880Z,99.90
2017-09-09T06:53:35.324Z,99.90
2017-09-09T06:56:02.783Z,99.90
2017-09-09T06:58:30.249Z,99.90
2017-09-09T07:00:57.705Z,99.90
2017-09-09T07:03:25.139Z,99.90
2017-09-09T07:05:52.592Z,99.90
2017-09-09T07:08:20.035Z,99.90
2017-09-09T07:10:48.247Z,99.90
2017-09-09T07:13:15.688Z,99.90
2017-09-09T07:15:43.140Z,99.90
2017-09-09T07:18:10.589Z,99.90
2017-09-09T07:20:38.807Z,99.90
2017-09-09T07:23:06.265Z,99.90
2017-09-09T07:25:33.740Z,99.90
2017-09-09T07:28:01.201Z,99.90
2017-09-09T07:30:28.659Z,99.90
2017-09-09T07:32:56.132Z,99.90
2017-09-09T07:35:24.335Z,99.90
2017-09-09T07:37:51.808Z,99.90
2017-09-09T07:40:19.241Z,99.90
2017-09-09T07:42:46.699Z,99.90
2017-09-09T07:45:14.139Z,99.90
2017-09-09T07:47:41.595Z,99.90
2017-09-09T07:50:09.804Z,99.90
2017-09-09T07:52:37.236Z,99.90
2017-09-09T07:55:04.701Z,99.90
2017-09-09T07:57:32.198Z,99.90
2017-09-09T07:59:59.662Z,99.90
2017-09-09T08:02:27.101Z,99.90
2017-09-09T08:04:54.601Z,99.90
2017-09-09T08:07:22.804Z,99.90
2017-09-09T08:09:50.237Z,99.90
2017-09-09T08:12:18.458Z,99.90
2017-09-09T08:14:45.961Z,99.90
2017-09-09T08:17:14.213Z,99.90
2017-09-09T08:19:41.657Z,99.90
2017-09-09T08:22:09.101Z,99.90
2017-09-09T08:24:36.559Z,99.90
2017-09-09T08:27:04.029Z,99.90
2017-09-09T08:29:31.544Z,99.90
2017-09-09T08:31:59.037Z,98.60
2017-09-09T08:34:26.496Z,98.00
2017-09-09T08:36:53.936Z,98.20
2017-09-09T08:39:21.395Z,97.00
2017-09-09T08:41:48.855Z,94.70
2017-09-09T08:44:16.311Z,93.10
2017-09-09T08:46:43.737Z,92.20
2017-09-09T08:49:11.205Z,93.20
2017-09-09T08:51:39.319Z,93.90
2017-09-09T08:54:06.780Z,94.10
2017-09-09T08:56:34.248Z,94.60
2017-09-09T08:59:02.459Z,94.00
2017-09-09T09:01:29.987Z,94.00
2017-09-09T09:03:58.227Z,93.90
2017-09-09T09:06:25.664Z,93.90
2017-09-09T09:08:53.129Z,94.00
2017-09-09T09:11:20.560Z,93.70
2017-09-09T09:13:48.043Z,94.00
2017-09-09T09:16:15.567Z,93.70
2017-09-09T09:18:43.063Z,93.50
2017-09-09T09:21:10.514Z,93.20
2017-09-09T09:23:37.957Z,93.00
2017-09-09T09:26:05.408Z,92.80
2017-09-09T09:28:32.843Z,92.30
2017-09-09T09:31:00.307Z,91.00
2017-09-09T09:33:27.736Z,90.50
2017-09-09T09:35:55.956Z,90.90
2017-09-09T09:38:23.416Z,90.90
2017-09-09T09:40:50.904Z,91.40
2017-09-09T09:43:18.360Z,91.70
2017-09-09T09:45:45.792Z,92.00
2017-09-09T09:48:13.260Z,91.90
2017-09-09T09:50:40.701Z,91.80
2017-09-09T09:53:08.160Z,92.30
2017-09-09T09:55:35.608Z,92.40
2017-09-09T09:58:03.073Z,92.40
2017-09-09T10:00:30.528Z,92.70
2017-09-09T10:02:57.962Z,92.40
2017-09-09T10:05:25.437Z,92.50
2017-09-09T10:07:52.868Z,92.40
2017-09-09T10:10:20.424Z,92.40
2017-09-09T10:12:47.855Z,92.40
2017-09-09T10:15:16.090Z,92.60
2017-09-09T10:17:43.536Z,92.50
2017-09-09T10:20:11.015Z,92.40
2017-09-09T10:22:38.438Z,92.50
2017-09-09T10:25:17.724Z,92.70
2017-09-09T10:27:45.948Z,93.70
2017-09-09T10:30:13.419Z,93.70
2017-09-09T10:32:40.859Z,93.70
2017-09-09T10:35:08.312Z,93.60
2017-09-09T10:37:35.773Z,93.50
2017-09-09T10:40:03.235Z,93.50
2017-09-09T10:42:30.749Z,92.90
2017-09-09T10:44:58.963Z,92.40
2017-09-09T10:47:26.420Z,92.40
2017-09-09T10:49:53.860Z,92.60
2017-09-09T10:52:21.322Z,93.60
2017-09-09T10:54:48.775Z,94.00
2017-09-09T10:57:16.220Z,94.50
2017-09-09T10:59:43.685Z,94.50
2017-09-09T11:02:11.127Z,95.10
2017-09-09T11:04:38.588Z,95.70
2017-09-09T11:07:06.063Z,95.40
2017-09-09T11:09:33.540Z,95.90
2017-09-09T11:12:00.977Z,96.30
2017-09-09T11:14:28.445Z,95.70
2017-09-09T11:16:55.890Z,94.50
2017-09-09T11:19:23.332Z,94.40
2017-09-09T11:21:50.808Z,94.70
2017-09-09T11:24:18.248Z,94.00
2017-09-09T11:26:45.701Z,93.70
2017-09-09T11:29:13.157Z,92.90
2017-09-09T11:31:40.776Z,92.70
2017-09-09T11:34:08.979Z,90.70
2017-09-09T11:36:36.415Z,90.70
2017-09-09T11:39:04.642Z,85.10
2017-09-09T11:41:32.849Z,84.50
2017-09-09T11:44:00.307Z,84.50
2017-09-09T11:46:28.600Z,84.20
2017-09-09T11:48:56.055Z,83.70
2017-09-09T11:51:24.270Z,83.70
2017-09-09T11:53:52.372Z,83.60
2017-09-09T11:56:19.829Z,82.00
2017-09-09T11:58:47.300Z,80.70
2017-09-09T12:01:14.764Z,81.10
2017-09-09T12:03:42.782Z,79.60
2017-09-09T12:06:10.252Z,78.90
2017-09-09T12:08:38.153Z,77.70
2017-09-09T12:11:05.588Z,74.90
2017-09-09T12:13:33.057Z,75.40
2017-09-09T12:16:00.493Z,72.80
2017-09-09T12:18:27.961Z,72.30
2017-09-09T12:20:55.424Z,72.00
2017-09-09T12:23:22.884Z,71.60
2017-09-09T12:25:50.325Z,70.90
2017-09-09T12:28:17.843Z,70.70
2017-09-09T12:30:45.283Z,70.50
2017-09-09T12:33:12.720Z,71.20
2017-09-09T12:35:40.953Z,72.40
2017-09-09T12:38:08.402Z,72.30
2017-09-09T12:40:35.923Z,70.40
2017-09-09T12:43:04.130Z,65.90
2017-09-09T12:45:31.672Z,65.90
2017-09-09T12:47:59.110Z,65.00
2017-09-09T12:50:26.562Z,65.40
2017-09-09T12:52:54.764Z,65.00
2017-09-09T12:55:23.092Z,65.00
2017-09-09T12:57:51.271Z,66.00
2017-09-09T13:00:19.476Z,65.50
2017-09-09T13:02:46.932Z,65.40
2017-09-09T13:05:14.373Z,66.00
2017-09-09T13:07:43.296Z,65.40
2017-09-09T13:10:10.736Z,65.40
2017-09-09T13:12:38.185Z,66.10
2017-09-09T13:15:05.724Z,66.50
2017-09-09T13:17:33.177Z,67.00
2017-09-09T13:20:01.506Z,67.00
2017-09-09T13:22:28.947Z,66.90
2017-09-09T13:24:56.397Z,66.70
2017-09-09T13:27:23.835Z,66.70
2017-09-09T13:29:51.296Z,66.00
2017-09-09T13:32:19.493Z,66.10
2017-09-09T13:34:46.956Z,66.10
2017-09-09T13:37:14.387Z,65.90
2017-09-09T13:39:41.848Z,65.40
2017-09-09T13:42:09.324Z,66.10
2017-09-09T13:44:36.747Z,66.40
2017-09-09T13:47:04.976Z,66.20
2017-09-09T13:49:32.436Z,66.20
2017-09-09T13:51:59.879Z,66.20
2017-09-09T13:54:27.382Z,65.70
2017-09-09T13:56:55.594Z,67.10
2017-09-09T13:59:23.103Z,67.10
2017-09-09T14:01:51.312Z,68.30
2017-09-09T14:04:18.820Z,68.30
2017-09-09T14:06:46.256Z,68.50
2017-09-09T14:09:13.740Z,68.10
2017-09-09T14:11:41.204Z,69.80
2017-09-09T14:14:08.647Z,71.20
2017-09-09T14:16:36.123Z,72.20
2017-09-09T14:19:04.341Z,73.60
2017-09-09T14:21:31.824Z,74.50
2017-09-09T14:23:59.273Z,74.00
2017-09-09T14:26:26.725Z,75.40
2017-09-09T14:28:54.201Z,75.30
2017-09-09T14:31:21.644Z,75.70
2017-09-09T14:33:49.105Z,75.80
2017-09-09T14:36:16.551Z,75.90
2017-09-09T14:38:44.027Z,75.50
2017-09-09T14:41:12.088Z,75.90
2017-09-09T14:43:39.542Z,75.60
2017-09-09T14:46:06.992Z,75.70
2017-09-09T14:48:35.207Z,74.80
2017-09-09T14:51:03.433Z,74.10
2017-09-09T14:53:30.869Z,74.10
2017-09-09T14:55:58.448Z,75.00
2017-09-09T14:58:25.904Z,74.70
2017-09-09T15:00:53.364Z,74.90
2017-09-09T15:03:20.812Z,75.10
2017-09-09T15:05:48.271Z,75.50
2017-09-09T15:08:15.758Z,75.70
2017-09-09T15:10:43.192Z,75.00
2017-09-09T15:13:10.668Z,74.20
2017-09-09T15:15:38.107Z,74.20
2017-09-09T15:18:05.560Z,74.20
2017-09-09T15:20:33.030Z,75.10
2017-09-09T15:23:00.472Z,75.50
2017-09-09T15:25:27.940Z,75.50
2017-09-09T15:27:55.396Z,75.80
2017-09-09T15:30:22.851Z,76.00
2017-09-09T15:32:50.348Z,76.30
2017-09-09T15:35:18.560Z,76.50
2017-09-09T15:37:46.021Z,76.30
2017-09-09T15:40:13.456Z,77.10
2017-09-09T15:42:40.922Z,77.20
2017-09-09T15:45:08.373Z,77.70
2017-09-09T15:47:35.848Z,77.90
2017-09-09T15:50:03.316Z,77.60
2017-09-09T15:52:30.754Z,78.10
2017-09-09T15:54:58.212Z,78.70
2017-09-09T15:57:25.655Z,79.30
2017-09-09T15:59:53.121Z,79.50
2017-09-09T16:02:20.557Z,79.30
2017-09-09T16:04:48.033Z,80.10
2017-09-09T16:07:15.463Z,80.40
2017-09-09T16:09:42.908Z,81.10
2017-09-09T16:12:11.134Z,80.50
2017-09-09T16:14:39.408Z,80.50
2017-09-09T16:17:06.873Z,82.00
2017-09-09T16:19:34.418Z,82.90
2017-09-09T16:22:01.875Z,83.10
2017-09-09T16:24:29.363Z,83.00
2017-09-09T16:26:56.794Z,82.40
2017-09-09T16:29:24.239Z,82.90
2017-09-09T16:31:51.756Z,83.30
2017-09-09T16:34:19.200Z,83.10
2017-09-09T16:36:47.453Z,83.80
2017-09-09T16:39:14.916Z,83.80
2017-09-09T16:41:42.359Z,84.60
2017-09-09T16:44:09.816Z,85.20
2017-09-09T16:46:37.256Z,85.30
2017-09-09T16:49:04.721Z,85.70
2017-09-09T16:51:32.161Z,85.90
2017-09-09T16:53:59.622Z,86.40
2017-09-09T16:56:27.089Z,86.80
2017-09-09T16:58:54.529Z,87.10
2017-09-09T17:01:22.009Z,87.30
2017-09-09T17:03:49.449Z,87.30
2017-09-09T17:06:16.889Z,87.40
2017-09-09T17:08:44.339Z,87.60
2017-09-09T17:11:11.812Z,87.70
2017-09-09T17:13:39.995Z,88.30
2017-09-09T17:16:07.433Z,88.60
2017-09-09T17:18:35.329Z,89.00
2017-09-09T17:21:02.777Z,89.40
2017-09-09T17:23:30.264Z,89.70
2017-09-09T17:25:57.705Z,90.00
2017-09-09T17:28:25.143Z,90.10
2017-09-09T17:30:52.616Z,90.20
2017-09-09T17:33:20.065Z,90.20
2017-09-09T17:35:47.564Z,90.30
2017-09-09T17:38:15.003Z,90.50
2017-09-09T17:40:43.235Z,90.70
2017-09-09T17:43:10.702Z,90.70
2017-09-09T17:45:38.148Z,90.70
2017-09-09T17:48:05.596Z,90.90
2017-09-09T17:50:33.061Z,90.90
2017-09-09T17:53:00.521Z,91.00
2017-09-09T17:55:27.953Z,91.00
2017-09-09T17:57:55.417Z,91.20
2017-09-09T18:00:22.854Z,91.40
2017-09-09T18:02:50.324Z,91.40
2017-09-09T18:05:17.765Z,91.60
2017-09-09T18:07:45.232Z,91.70
2017-09-09T18:10:12.712Z,91.80
2017-09-09T18:12:40.912Z,92.30
2017-09-09T18:15:08.371Z,92.00
2017-09-09T18:17:35.829Z,92.10
2017-09-09T18:20:04.037Z,92.20
2017-09-09T18:22:31.527Z,92.30
2017-09-09T18:24:58.977Z,92.40
2017-09-09T18:27:26.420Z,92.40
2017-09-09T18:29:53.868Z,92.40
2017-09-09T18:32:21.350Z,92.40
2017-09-09T18:34:48.797Z,92.60
2017-09-09T18:37:16.257Z,92.70
2017-09-09T18:39:43.729Z,92.60
2017-09-09T18:42:11.167Z,92.50
2017-09-09T18:44:38.617Z,92.60
2017-09-09T18:47:06.078Z,92.70
2017-09-09T18:49:33.531Z,92.70
2017-09-09T18:52:00.988Z,92.80
2017-09-09T18:54:28.430Z,92.80
2017-09-09T18:56:55.883Z,92.70
2017-09-09T18:59:23.363Z,92.70
2017-09-09T19:01:50.803Z,92.80
2017-09-09T19:04:18.249Z,92.90
2017-09-09T19:06:45.687Z,93.00
2017-09-09T19:09:13.900Z,93.10
2017-09-09T19:11:41.336Z,93.10
2017-09-09T19:14:08.795Z,93.20
2017-09-09T19:16:36.232Z,93.20
2017-09-09T19:19:04.460Z,93.40
2017-09-09T19:21:31.967Z,93.40
2017-09-09T19:24:00.219Z,93.60
2017-09-09T19:26:27.679Z,93.60
2017-09-09T19:28:55.148Z,93.50
2017-09-09T19:31:22.616Z,93.70
2017-09-09T19:33:50.825Z,93.70
2017-09-09T19:36:19.041Z,94.00
2017-09-09T19:38:47.267Z,93.90
2017-09-09T19:41:14.702Z,93.70
2017-09-09T19:43:42.192Z,93.80
2017-09-09T19:46:09.629Z,93.80
2017-09-09T19:48:37.099Z,93.90
2017-09-09T19:51:04.535Z,94.00
2017-09-09T19:53:32.005Z,94.00
2017-09-09T19:55:59.509Z,94.00
2017-09-09T19:58:26.946Z,93.90
2017-09-09T20:00:54.422Z,94.10
2017-09-09T20:03:21.890Z,94.30
2017-09-09T20:05:50.095Z,94.90
2017-09-09T20:08:17.553Z,94.50
2017-09-09T20:10:45.000Z,94.50
2017-09-09T20:13:12.571Z,94.70
2017-09-09T20:15:40.050Z,94.80
2017-09-09T20:18:07.480Z,95.00
2017-09-09T20:20:34.924Z,95.10
2017-09-09T20:23:02.420Z,95.20
2017-09-09T20:25:29.887Z,95.30
2017-09-09T20:27:58.147Z,95.40
2017-09-09T20:30:25.617Z,95.30
2017-09-09T20:32:53.102Z,95.30
2017-09-09T20:35:20.528Z,95.20
2017-09-09T20:37:48.037Z,95.40
2017-09-09T20:40:15.483Z,95.40
2017-09-09T20:42:43.703Z,95.50
2017-09-09T20:45:11.173Z,95.50
2017-09-09T20:47:38.628Z,95.50
2017-09-09T20:50:06.102Z,95.50
2017-09-09T20:52:33.678Z,95.50
2017-09-09T20:55:01.916Z,95.40
2017-09-09T20:57:30.166Z,95.30
2017-09-09T20:59:57.603Z,95.30
2017-09-09T21:02:25.066Z,95.10
2017-09-09T21:04:52.517Z,95.50
2017-09-09T21:07:19.988Z,95.50
2017-09-09T21:09:47.443Z,95.70
2017-09-09T21:12:14.902Z,95.60
2017-09-09T21:14:42.385Z,95.70
2017-09-09T21:17:09.838Z,95.80
2017-09-09T21:19:37.340Z,95.80
2017-09-09T21:22:05.550Z,95.50
2017-09-09T21:24:33.014Z,95.40
2017-09-09T21:27:00.454Z,95.50
2017-09-09T21:29:27.904Z,95.40
2017-09-09T21:31:55.355Z,95.40
2017-09-09T21:34:22.838Z,95.60
2017-09-09T21:36:50.399Z,95.80
2017-09-09T21:39:17.848Z,95.90
2017-09-09T21:41:45.304Z,96.00
2017-09-09T21:44:12.767Z,96.20
2017-09-09T21:46:40.241Z,96.40
2017-09-09T21:49:07.712Z,96.40
2017-09-09T21:51:35.174Z,96.60
2017-09-09T21:54:02.621Z,96.60
2017-09-09T21:56:30.076Z,96.70
2017-09-09T21:58:57.565Z,96.70
2017-09-09T22:01:25.012Z,96.70
2017-09-09T22:03:53.265Z,96.80
2017-09-09T22:06:20.706Z,96.70
2017-09-09T22:08:48.136Z,96.80
2017-09-09T22:11:15.590Z,96.80
2017-09-09T22:13:43.054Z,97.00
2017-09-09T22:16:10.569Z,97.00
2017-09-09T22:18:38.780Z,97.10
2017-09-09T22:21:06.225Z,97.10
2017-09-09T22:23:33.695Z,97.30
2017-09-09T22:26:01.131Z,97.40
2017-09-09T22:28:28.605Z,97.50
2017-09-09T22:30:56.104Z,97.70
2017-09-09T22:33:23.564Z,97.80
2017-09-09T22:35:51.000Z,97.90
2017-09-09T22:38:18.435Z,98.10
2017-09-09T22:40:45.896Z,98.10
2017-09-09T22:43:13.333Z,98.10
2017-09-09T22:45:40.790Z,98.40
2017-09-09T22:48:08.228Z,98.40
2017-09-09T22:50:35.695Z,98.30
2017-09-09T22:53:03.148Z,98.40
2017-09-09T22:55:30.591Z,98.50
2017-09-09T22:57:59.488Z,98.60
2017-09-09T23:00:26.933Z,98.60
2017-09-09T23:02:55.174Z,98.50
2017-09-09T23:05:22.629Z,98.50
2017-09-09T23:07:50.094Z,98.10
2017-09-09T23:10:17.568Z,98.00
2017-09-09T23:12:45.792Z,98.00
2017-09-09T23:15:13.228Z,98.00
2017-09-09T23:17:40.681Z,98.00
2017-09-09T23:20:08.179Z,98.20
2017-09-09T23:22:35.725Z,98.20
2017-09-09T23:25:03.199Z,98.10
2017-09-09T23:27:30.640Z,98.10
2017-09-09T23:29:58.096Z,98.10
2017-09-09T23:32:26.324Z,98.40
2017-09-09T23:34:54.524Z,98.50
2017-09-09T23:37:22.001Z,98.50
2017-09-09T23:39:49.444Z,98.70
2017-09-09T23:42:17.615Z,98.80
2017-09-09T23:44:45.091Z,98.60
2017-09-09T23:47:12.529Z,98.90
2017-09-09T23:49:40.001Z,99.00
2017-09-09T23:52:08.091Z,99.20
2017-09-09T23:54:35.539Z,99.40
2017-09-09T23:57:03.004Z,99.50
2017-09-09T23:59:30.452Z,99.50
